South Windham, Maine
Current Conditions -  °F | °C
As of 3:51 AM on Friday 24 Oct 2014 (Local Time) from KPWM Reporting Station
Moderate Rain Moderate Rain  
Wind Chill: 44°   Ceiling: 1300
Heat Index: 49°   Visibility: 5mi
Dew Point: 46°   Wind: 14mph
Humidity: 90%   Direction: 350°N
Pressure: 29.67"   Gusts: NA
Location:  43.74°N, 70.42°W
Report Text: KPWM 240751Z AUTO 35012KT 5SM RA BR FEW008 OVC013 09/08 A2967 RMK AO2 SLP046 P0019 T00940078
Loading
Personal Weather Stations






























Interactive Weather Map
Tropical Storm Tracking
New forecast layout! Learn more

10-Day Weather Forecast

Advertisements
Track Severe Weather on mobile